sensor_id;sensor_type;location;lat;lon;timestamp;pressure;altitude;pressure_sealevel;temperature;humidity
66703;BME280;60933;46.398;-63.798;2023-08-17T00:00:46;101685.47;;;17.63;78.19
66703;BME280;60933;46.398;-63.798;2023-08-17T00:03:15;101684.97;;;17.53;78.91
66703;BME280;60933;46.398;-63.798;2023-08-17T00:05:41;101683.44;;;17.48;79.22
66703;BME280;60933;46.398;-63.798;2023-08-17T00:08:07;101695.03;;;17.40;79.45
66703;BME280;60933;46.398;-63.798;2023-08-17T00:10:34;101702.13;;;17.37;79.28
66703;BME280;60933;46.398;-63.798;2023-08-17T00:13:00;101695.50;;;17.28;79.45
66703;BME280;60933;46.398;-63.798;2023-08-17T00:15:27;101706.13;;;17.23;79.70
66703;BME280;60933;46.398;-63.798;2023-08-17T00:17:53;101703.78;;;17.16;79.93
66703;BME280;60933;46.398;-63.798;2023-08-17T00:20:20;101712.59;;;17.13;79.91
66703;BME280;60933;46.398;-63.798;2023-08-17T00:22:46;101709.41;;;17.05;79.82
66703;BME280;60933;46.398;-63.798;2023-08-17T00:25:12;101708.84;;;16.97;80.13
66703;BME280;60933;46.398;-63.798;2023-08-17T00:27:38;101715.81;;;16.96;80.24
66703;BME280;60933;46.398;-63.798;2023-08-17T00:30:05;101718.66;;;16.88;80.63
66703;BME280;60933;46.398;-63.798;2023-08-17T00:32:31;101721.38;;;16.85;80.74
66703;BME280;60933;46.398;-63.798;2023-08-17T00:34:57;101728.50;;;16.80;81.09
66703;BME280;60933;46.398;-63.798;2023-08-17T00:37:23;101731.50;;;16.69;81.22
66703;BME280;60933;46.398;-63.798;2023-08-17T00:39:50;101731.56;;;16.68;81.33
66703;BME280;60933;46.398;-63.798;2023-08-17T00:42:16;101732.63;;;16.62;81.41
66703;BME280;60933;46.398;-63.798;2023-08-17T00:44:42;101726.81;;;16.54;81.64
66703;BME280;60933;46.398;-63.798;2023-08-17T00:47:08;101725.16;;;16.51;81.91
66703;BME280;60933;46.398;-63.798;2023-08-17T00:49:35;101731.44;;;16.45;82.70
66703;BME280;60933;46.398;-63.798;2023-08-17T00:52:02;101734.19;;;16.41;82.61
66703;BME280;60933;46.398;-63.798;2023-08-17T00:54:31;101735.19;;;16.37;82.68
66703;BME280;60933;46.398;-63.798;2023-08-17T00:56:58;101732.81;;;16.30;82.85
66703;BME280;60933;46.398;-63.798;2023-08-17T00:59:25;101732.09;;;16.25;82.82
66703;BME280;60933;46.398;-63.798;2023-08-17T01:01:51;101737.44;;;16.21;82.98
66703;BME280;60933;46.398;-63.798;2023-08-17T01:04:17;101741.97;;;16.16;83.32
66703;BME280;60933;46.398;-63.798;2023-08-17T01:06:44;101745.53;;;16.13;83.24
66703;BME280;60933;46.398;-63.798;2023-08-17T01:09:10;101750.03;;;16.08;83.39
66703;BME280;60933;46.398;-63.798;2023-08-17T01:11:49;101741.50;;;16.03;83.47
66703;BME280;60933;46.398;-63.798;2023-08-17T01:14:31;101737.44;;;15.94;83.63
66703;BME280;60933;46.398;-63.798;2023-08-17T01:17:31;101742.78;;;15.89;83.93
66703;BME280;60933;46.398;-63.798;2023-08-17T01:19:56;101736.88;;;15.84;83.73
66703;BME280;60933;46.398;-63.798;2023-08-17T01:22:24;101738.72;;;15.79;84.21
66703;BME280;60933;46.398;-63.798;2023-08-17T01:24:55;101730.22;;;15.74;84.34
66703;BME280;60933;46.398;-63.798;2023-08-17T01:27:24;101726.09;;;15.66;84.35
66703;BME280;60933;46.398;-63.798;2023-08-17T01:29:51;101714.09;;;15.62;84.54
66703;BME280;60933;46.398;-63.798;2023-08-17T01:32:21;101715.88;;;15.60;84.93
66703;BME280;60933;46.398;-63.798;2023-08-17T01:35:07;101710.81;;;15.56;85.15
66703;BME280;60933;46.398;-63.798;2023-08-17T01:37:38;101709.31;;;15.48;85.40
66703;BME280;60933;46.398;-63.798;2023-08-17T01:40:06;101717.09;;;15.48;85.49
66703;BME280;60933;46.398;-63.798;2023-08-17T01:42:36;101722.50;;;15.42;85.37
66703;BME280;60933;46.398;-63.798;2023-08-17T01:45:02;101714.88;;;15.36;86.19
66703;BME280;60933;46.398;-63.798;2023-08-17T01:47:30;101719.28;;;15.34;85.87
66703;BME280;60933;46.398;-63.798;2023-08-17T01:49:56;101716.78;;;15.29;85.74
66703;BME280;60933;46.398;-63.798;2023-08-17T01:52:28;101724.69;;;15.26;86.10
66703;BME280;60933;46.398;-63.798;2023-08-17T01:54:54;101718.75;;;15.21;85.95
66703;BME280;60933;46.398;-63.798;2023-08-17T01:57:20;101711.22;;;15.12;86.54
66703;BME280;60933;46.398;-63.798;2023-08-17T01:59:46;101724.16;;;15.15;86.18
66703;BME280;60933;46.398;-63.798;2023-08-17T02:02:12;101720.84;;;15.08;85.87
66703;BME280;60933;46.398;-63.798;2023-08-17T02:04:40;101724.41;;;15.06;86.12
66703;BME280;60933;46.398;-63.798;2023-08-17T02:07:06;101732.28;;;15.02;85.90
66703;BME280;60933;46.398;-63.798;2023-08-17T02:09:32;101731.50;;;14.99;85.91
66703;BME280;60933;46.398;-63.798;2023-08-17T02:11:58;101746.34;;;14.95;85.59
66703;BME280;60933;46.398;-63.798;2023-08-17T02:14:25;101743.03;;;14.90;85.70
66703;BME280;60933;46.398;-63.798;2023-08-17T02:16:52;101744.84;;;14.86;85.94
66703;BME280;60933;46.398;-63.798;2023-08-17T02:19:18;101726.91;;;14.77;85.45
66703;BME280;60933;46.398;-63.798;2023-08-17T02:21:44;101735.50;;;14.79;85.60
66703;BME280;60933;46.398;-63.798;2023-08-17T02:24:11;101728.72;;;14.74;85.54
66703;BME280;60933;46.398;-63.798;2023-08-17T02:26:37;101727.91;;;14.71;85.32
66703;BME280;60933;46.398;-63.798;2023-08-17T02:29:04;101730.63;;;14.65;85.68
66703;BME280;60933;46.398;-63.798;2023-08-17T02:31:30;101733.25;;;14.65;85.52
66703;BME280;60933;46.398;-63.798;2023-08-17T02:33:59;101726.53;;;14.56;85.74
66703;BME280;60933;46.398;-63.798;2023-08-17T02:36:29;101730.84;;;14.57;85.36
66703;BME280;60933;46.398;-63.798;2023-08-17T02:38:55;101730.91;;;14.54;85.41
66703;BME280;60933;46.398;-63.798;2023-08-17T02:41:21;101730.16;;;14.51;85.55
66703;BME280;60933;46.398;-63.798;2023-08-17T02:43:47;101735.38;;;14.49;85.50
66703;BME280;60933;46.398;-63.798;2023-08-17T02:46:13;101737.16;;;14.47;85.51
66703;BME280;60933;46.398;-63.798;2023-08-17T02:48:40;101725.19;;;14.41;85.50
66703;BME280;60933;46.398;-63.798;2023-08-17T02:51:06;101739.09;;;14.40;85.42
66703;BME280;60933;46.398;-63.798;2023-08-17T02:53:32;101741.75;;;14.37;85.76
66703;BME280;60933;46.398;-63.798;2023-08-17T02:55:58;101746.06;;;14.38;86.04
66703;BME280;60933;46.398;-63.798;2023-08-17T02:58:24;101737.50;;;14.33;86.27
66703;BME280;60933;46.398;-63.798;2023-08-17T03:00:53;101739.38;;;14.28;85.81
66703;BME280;60933;46.398;-63.798;2023-08-17T03:03:19;101743.72;;;14.28;85.94
66703;BME280;60933;46.398;-63.798;2023-08-17T03:05:46;101735.25;;;14.19;85.51
66703;BME280;60933;46.398;-63.798;2023-08-17T03:08:12;101754.22;;;14.23;85.52
66703;BME280;60933;46.398;-63.798;2023-08-17T03:10:38;101744.81;;;14.17;85.64
66703;BME280;60933;46.398;-63.798;2023-08-17T03:13:04;101744.78;;;14.19;85.65
66703;BME280;60933;46.398;-63.798;2023-08-17T03:15:30;101748.31;;;14.16;85.09
66703;BME280;60933;46.398;-63.798;2023-08-17T03:17:57;101736.25;;;14.14;85.03
66703;BME280;60933;46.398;-63.798;2023-08-17T03:20:23;101742.44;;;14.09;85.05
66703;BME280;60933;46.398;-63.798;2023-08-17T03:22:49;101744.16;;;14.09;85.43
66703;BME280;60933;46.398;-63.798;2023-08-17T03:25:15;101748.50;;;14.08;85.19
66703;BME280;60933;46.398;-63.798;2023-08-17T03:27:41;101751.09;;;14.07;85.49
66703;BME280;60933;46.398;-63.798;2023-08-17T03:30:07;101759.81;;;14.06;85.75
66703;BME280;60933;46.398;-63.798;2023-08-17T03:32:33;101760.66;;;14.06;85.35
66703;BME280;60933;46.398;-63.798;2023-08-17T03:34:59;101759.81;;;14.06;86.26
66703;BME280;60933;46.398;-63.798;2023-08-17T03:37:25;101757.22;;;14.06;86.30
66703;BME280;60933;46.398;-63.798;2023-08-17T03:39:52;101764.06;;;14.08;86.46
66703;BME280;60933;46.398;-63.798;2023-08-17T03:42:18;101758.09;;;14.05;86.25
66703;BME280;60933;46.398;-63.798;2023-08-17T03:44:44;101757.94;;;14.11;86.41
66703;BME280;60933;46.398;-63.798;2023-08-17T03:47:10;101758.72;;;14.15;86.85
66703;BME280;60933;46.398;-63.798;2023-08-17T03:49:36;101757.03;;;14.14;87.13
66703;BME280;60933;46.398;-63.798;2023-08-17T03:52:02;101761.25;;;14.18;87.73
66703;BME280;60933;46.398;-63.798;2023-08-17T03:54:28;101769.84;;;14.20;87.87
66703;BME280;60933;46.398;-63.798;2023-08-17T03:56:54;101776.81;;;14.19;87.68
66703;BME280;60933;46.398;-63.798;2023-08-17T03:59:20;101770.84;;;14.16;87.34
66703;BME280;60933;46.398;-63.798;2023-08-17T04:01:46;101771.72;;;14.15;87.56
66703;BME280;60933;46.398;-63.798;2023-08-17T04:04:12;101763.19;;;14.09;87.66
66703;BME280;60933;46.398;-63.798;2023-08-17T04:06:39;101777.78;;;14.14;87.43
66703;BME280;60933;46.398;-63.798;2023-08-17T04:09:06;101775.25;;;14.12;87.01
66703;BME280;60933;46.398;-63.798;2023-08-17T04:11:35;101769.28;;;14.08;86.74
66703;BME280;60933;46.398;-63.798;2023-08-17T04:14:03;101780.53;;;14.07;86.93
66703;BME280;60933;46.398;-63.798;2023-08-17T04:16:29;101775.41;;;14.04;87.52
66703;BME280;60933;46.398;-63.798;2023-08-17T04:18:55;101787.50;;;14.05;87.51
66703;BME280;60933;46.398;-63.798;2023-08-17T04:21:21;101783.25;;;14.03;87.94
66703;BME280;60933;46.398;-63.798;2023-08-17T04:23:47;101786.75;;;14.00;87.79
66703;BME280;60933;46.398;-63.798;2023-08-17T04:26:14;101784.22;;;13.97;87.21
66703;BME280;60933;46.398;-63.798;2023-08-17T04:28:40;101779.19;;;13.91;87.12
66703;BME280;60933;46.398;-63.798;2023-08-17T04:31:06;101779.22;;;13.89;87.55
66703;BME280;60933;46.398;-63.798;2023-08-17T04:33:32;101790.44;;;13.90;87.79
66703;BME280;60933;46.398;-63.798;2023-08-17T04:35:58;101794.00;;;13.86;88.22
66703;BME280;60933;46.398;-63.798;2023-08-17T04:38:25;101795.78;;;13.84;87.89
66703;BME280;60933;46.398;-63.798;2023-08-17T04:40:51;101794.13;;;13.80;87.44
66703;BME280;60933;46.398;-63.798;2023-08-17T04:43:17;101793.38;;;13.74;87.60
66703;BME280;60933;46.398;-63.798;2023-08-17T04:45:44;101781.47;;;13.64;88.18
66703;BME280;60933;46.398;-63.798;2023-08-17T04:48:13;101795.16;;;13.71;88.45
66703;BME280;60933;46.398;-63.798;2023-08-17T04:50:39;101787.47;;;13.66;88.61
66703;BME280;60933;46.398;-63.798;2023-08-17T04:53:05;101788.41;;;13.64;88.47
66703;BME280;60933;46.398;-63.798;2023-08-17T04:55:31;101782.44;;;13.60;88.25
66703;BME280;60933;46.398;-63.798;2023-08-17T04:57:58;101785.06;;;13.58;88.64
66703;BME280;60933;46.398;-63.798;2023-08-17T05:00:24;101781.69;;;13.55;88.18
66703;BME280;60933;46.398;-63.798;2023-08-17T05:02:54;101789.50;;;13.52;88.70
66703;BME280;60933;46.398;-63.798;2023-08-17T05:05:21;101798.97;;;13.56;91.58
66703;BME280;60933;46.398;-63.798;2023-08-17T05:07:47;101786.09;;;13.50;90.76
66703;BME280;60933;46.398;-63.798;2023-08-17T05:10:13;101780.19;;;13.43;90.37
66703;BME280;60933;46.398;-63.798;2023-08-17T05:12:39;101787.16;;;13.38;90.14
66703;BME280;60933;46.398;-63.798;2023-08-17T05:15:06;101784.53;;;13.41;89.84
66703;BME280;60933;46.398;-63.798;2023-08-17T05:17:32;101788.91;;;13.37;89.62
66703;BME280;60933;46.398;-63.798;2023-08-17T05:19:59;101782.97;;;13.32;89.14
66703;BME280;60933;46.398;-63.798;2023-08-17T05:22:25;101782.09;;;13.32;89.02
66703;BME280;60933;46.398;-63.798;2023-08-17T05:24:51;101782.19;;;13.28;88.65
66703;BME280;60933;46.398;-63.798;2023-08-17T05:27:17;101783.00;;;13.29;89.06
66703;BME280;60933;46.398;-63.798;2023-08-17T05:29:43;101784.78;;;13.27;88.98
66703;BME280;60933;46.398;-63.798;2023-08-17T05:32:09;101770.19;;;13.23;88.57
66703;BME280;60933;46.398;-63.798;2023-08-17T05:34:35;101775.31;;;13.24;88.69
66703;BME280;60933;46.398;-63.798;2023-08-17T05:37:02;101775.38;;;13.23;89.00
66703;BME280;60933;46.398;-63.798;2023-08-17T05:39:28;101775.38;;;13.23;89.73
66703;BME280;60933;46.398;-63.798;2023-08-17T05:41:54;101770.22;;;13.21;89.49
66703;BME280;60933;46.398;-63.798;2023-08-17T05:44:21;101765.97;;;13.17;88.78
66703;BME280;60933;46.398;-63.798;2023-08-17T05:46:47;101766.88;;;13.14;88.27
66703;BME280;60933;46.398;-63.798;2023-08-17T05:49:14;101778.13;;;13.13;88.49
66703;BME280;60933;46.398;-63.798;2023-08-17T05:51:40;101769.50;;;13.11;88.43
66703;BME280;60933;46.398;-63.798;2023-08-17T05:54:06;101764.41;;;13.08;88.54
66703;BME280;60933;46.398;-63.798;2023-08-17T05:56:32;101764.44;;;13.05;88.46
66703;BME280;60933;46.398;-63.798;2023-08-17T05:58:58;101782.56;;;13.07;89.84
66703;BME280;60933;46.398;-63.798;2023-08-17T06:01:25;101781.72;;;13.06;90.01
66703;BME280;60933;46.398;-63.798;2023-08-17T06:03:51;101774.91;;;13.02;89.44
66703;BME280;60933;46.398;-63.798;2023-08-17T06:06:17;101774.06;;;13.00;88.78
66703;BME280;60933;46.398;-63.798;2023-08-17T06:08:43;101759.47;;;12.94;88.71
66703;BME280;60933;46.398;-63.798;2023-08-17T06:11:09;101768.97;;;12.95;88.72
66703;BME280;60933;46.398;-63.798;2023-08-17T06:13:35;101772.47;;;12.91;88.87
66703;BME280;60933;46.398;-63.798;2023-08-17T06:16:02;101773.31;;;12.95;89.64
66703;BME280;60933;46.398;-63.798;2023-08-17T06:18:29;101764.66;;;12.94;90.21
66703;BME280;60933;46.398;-63.798;2023-08-17T06:20:56;101767.25;;;12.94;91.19
66703;BME280;60933;46.398;-63.798;2023-08-17T06:23:24;101773.31;;;12.93;90.35
66703;BME280;60933;46.398;-63.798;2023-08-17T06:25:56;101775.06;;;12.93;91.51
66703;BME280;60933;46.398;-63.798;2023-08-17T06:28:23;101769.91;;;12.90;90.56
66703;BME280;60933;46.398;-63.798;2023-08-17T06:30:52;101770.84;;;12.87;90.59
66703;BME280;60933;46.398;-63.798;2023-08-17T06:33:19;101765.69;;;12.84;90.09
66703;BME280;60933;46.398;-63.798;2023-08-17T06:35:45;101768.28;;;12.84;89.59
66703;BME280;60933;46.398;-63.798;2023-08-17T06:38:11;101768.34;;;12.81;89.27
66703;BME280;60933;46.398;-63.798;2023-08-17T06:40:37;101761.50;;;12.77;89.22
66703;BME280;60933;46.398;-63.798;2023-08-17T06:43:04;101764.09;;;12.78;89.51
66703;BME280;60933;46.398;-63.798;2023-08-17T06:45:32;101758.94;;;12.75;89.88
66703;BME280;60933;46.398;-63.798;2023-08-17T06:47:58;101766.72;;;12.75;89.90
66703;BME280;60933;46.398;-63.798;2023-08-17T06:50:24;101766.75;;;12.72;90.78
66703;BME280;60933;46.398;-63.798;2023-08-17T06:52:52;101770.25;;;12.71;89.99
66703;BME280;60933;46.398;-63.798;2023-08-17T06:55:18;101773.72;;;12.70;89.98
66703;BME280;60933;46.398;-63.798;2023-08-17T06:57:44;101778.06;;;12.68;89.80
66703;BME280;60933;46.398;-63.798;2023-08-17T07:00:11;101774.66;;;12.66;89.39
66703;BME280;60933;46.398;-63.798;2023-08-17T07:02:37;101778.16;;;12.63;89.43
66703;BME280;60933;46.398;-63.798;2023-08-17T07:05:04;101780.78;;;12.62;89.50
66703;BME280;60933;46.398;-63.798;2023-08-17T07:07:30;101753.44;;;12.42;89.53
66703;BME280;60933;46.398;-63.798;2023-08-17T07:09:59;101782.56;;;12.57;89.77
66703;BME280;60933;46.398;-63.798;2023-08-17T07:12:26;101779.09;;;12.58;90.18
66703;BME280;60933;46.398;-63.798;2023-08-17T07:14:54;101787.66;;;12.63;91.09
66703;BME280;60933;46.398;-63.798;2023-08-17T07:17:20;101776.50;;;12.59;90.87
66703;BME280;60933;46.398;-63.798;2023-08-17T07:19:47;101761.94;;;12.50;90.60
66703;BME280;60933;46.398;-63.798;2023-08-17T07:22:13;101777.38;;;12.57;90.21
66703;BME280;60933;46.398;-63.798;2023-08-17T07:24:39;101784.28;;;12.58;89.80
66703;BME280;60933;46.398;-63.798;2023-08-17T07:27:05;101774.00;;;12.55;89.21
66703;BME280;60933;46.398;-63.798;2023-08-17T07:29:32;101775.69;;;12.56;89.92
66703;BME280;60933;46.398;-63.798;2023-08-17T07:31:58;101775.75;;;12.53;89.28
66703;BME280;60933;46.398;-63.798;2023-08-17T07:34:30;101763.72;;;12.48;89.88
66703;BME280;60933;46.398;-63.798;2023-08-17T07:36:57;101779.16;;;12.55;90.14
66703;BME280;60933;46.398;-63.798;2023-08-17T07:39:24;101782.59;;;12.55;91.06
66703;BME280;60933;46.398;-63.798;2023-08-17T07:41:50;101784.34;;;12.55;90.41
66703;BME280;60933;46.398;-63.798;2023-08-17T07:44:16;101779.28;;;12.48;90.06
66703;BME280;60933;46.398;-63.798;2023-08-17T07:46:43;101784.34;;;12.55;90.80
66703;BME280;60933;46.398;-63.798;2023-08-17T07:49:09;101779.16;;;12.53;90.96
66703;BME280;60933;46.398;-63.798;2023-08-17T07:51:39;101781.72;;;12.56;90.81
66703;BME280;60933;46.398;-63.798;2023-08-17T07:54:05;101791.25;;;12.56;92.23
66703;BME280;60933;46.398;-63.798;2023-08-17T07:56:31;101793.84;;;12.54;92.31
66703;BME280;60933;46.398;-63.798;2023-08-17T07:58:57;101794.72;;;12.55;92.33
66703;BME280;60933;46.398;-63.798;2023-08-17T08:01:23;101789.53;;;12.53;91.84
66703;BME280;60933;46.398;-63.798;2023-08-17T08:03:50;101794.75;;;12.51;91.47
66703;BME280;60933;46.398;-63.798;2023-08-17T08:06:16;101784.44;;;12.48;91.22
66703;BME280;60933;46.398;-63.798;2023-08-17T08:08:42;101787.91;;;12.46;90.80
66703;BME280;60933;46.398;-63.798;2023-08-17T08:11:09;101782.81;;;12.43;91.00
66703;BME280;60933;46.398;-63.798;2023-08-17T08:13:35;101787.94;;;12.44;90.47
66703;BME280;60933;46.398;-63.798;2023-08-17T08:16:03;101787.13;;;12.42;90.49
66703;BME280;60933;46.398;-63.798;2023-08-17T08:18:29;101781.97;;;12.41;89.91
66703;BME280;60933;46.398;-63.798;2023-08-17T08:20:55;101789.78;;;12.39;89.44
66703;BME280;60933;46.398;-63.798;2023-08-17T08:23:24;101793.28;;;12.37;89.34
66703;BME280;60933;46.398;-63.798;2023-08-17T08:25:51;101795.84;;;12.35;89.29
66703;BME280;60933;46.398;-63.798;2023-08-17T08:28:18;101789.91;;;12.30;89.23
66703;BME280;60933;46.398;-63.798;2023-08-17T08:30:44;101784.69;;;12.33;89.44
66703;BME280;60933;46.398;-63.798;2023-08-17T08:33:10;101779.59;;;12.28;89.60
66703;BME280;60933;46.398;-63.798;2023-08-17T08:35:36;101790.75;;;12.32;89.82
66703;BME280;60933;46.398;-63.798;2023-08-17T08:38:02;101784.69;;;12.33;90.42
66703;BME280;60933;46.398;-63.798;2023-08-17T08:40:30;101789.00;;;12.32;90.77
66703;BME280;60933;46.398;-63.798;2023-08-17T08:42:59;101786.41;;;12.32;89.88
66703;BME280;60933;46.398;-63.798;2023-08-17T08:45:28;101788.16;;;12.32;89.88
66703;BME280;60933;46.398;-63.798;2023-08-17T08:47:56;101788.16;;;12.32;89.80
66703;BME280;60933;46.398;-63.798;2023-08-17T08:50:25;101795.03;;;12.34;90.08
66703;BME280;60933;46.398;-63.798;2023-08-17T08:53:02;101790.69;;;12.35;90.30
66703;BME280;60933;46.398;-63.798;2023-08-17T08:55:37;101791.56;;;12.34;89.93
66703;BME280;60933;46.398;-63.798;2023-08-17T08:58:05;101783.88;;;12.28;90.00
66703;BME280;60933;46.398;-63.798;2023-08-17T09:00:33;101800.13;;;12.38;89.83
66703;BME280;60933;46.398;-63.798;2023-08-17T09:03:02;101785.56;;;12.30;91.67
66703;BME280;60933;46.398;-63.798;2023-08-17T09:05:31;101798.38;;;12.40;92.17
66703;BME280;60933;46.398;-63.798;2023-08-17T09:08:00;101805.25;;;12.42;92.29
66703;BME280;60933;46.398;-63.798;2023-08-17T09:10:28;101804.38;;;12.45;93.08
66703;BME280;60933;46.398;-63.798;2023-08-17T09:12:54;101806.97;;;12.43;92.01
66703;BME280;60933;46.398;-63.798;2023-08-17T09:15:20;101798.41;;;12.38;91.53
66703;BME280;60933;46.398;-63.798;2023-08-17T09:17:47;101807.00;;;12.42;91.42
66703;BME280;60933;46.398;-63.798;2023-08-17T09:20:44;101811.31;;;12.40;92.06
66703;BME280;60933;46.398;-63.798;2023-08-17T09:23:17;101813.94;;;12.38;91.24
66703;BME280;60933;46.398;-63.798;2023-08-17T09:25:46;101813.94;;;12.38;90.66
66703;BME280;60933;46.398;-63.798;2023-08-17T09:28:15;101817.38;;;12.40;90.63
66703;BME280;60933;46.398;-63.798;2023-08-17T09:30:56;101824.25;;;12.43;91.52
66703;BME280;60933;46.398;-63.798;2023-08-17T09:33:24;101830.19;;;12.48;91.62
66703;BME280;60933;46.398;-63.798;2023-08-17T09:35:54;101824.97;;;12.51;91.45
66703;BME280;60933;46.398;-63.798;2023-08-17T09:38:21;101828.38;;;12.53;91.41
66703;BME280;60933;46.398;-63.798;2023-08-17T09:40:48;101829.19;;;12.57;91.24
66703;BME280;60933;46.398;-63.798;2023-08-17T09:43:15;101825.72;;;12.59;91.13
66703;BME280;60933;46.398;-63.798;2023-08-17T09:45:43;101834.22;;;12.66;91.56
66703;BME280;60933;46.398;-63.798;2023-08-17T09:48:11;101835.84;;;12.73;90.61
66703;BME280;60933;46.398;-63.798;2023-08-17T09:50:40;101832.31;;;12.77;91.20
66703;BME280;60933;46.398;-63.798;2023-08-17T09:53:06;101841.63;;;12.88;91.03
66703;BME280;60933;46.398;-63.798;2023-08-17T09:55:32;101841.50;;;12.97;91.90
66703;BME280;60933;46.398;-63.798;2023-08-17T09:58:00;101834.47;;;13.04;92.05
66703;BME280;60933;46.398;-63.798;2023-08-17T10:00:27;101836.84;;;13.16;92.02
66703;BME280;60933;46.398;-63.798;2023-08-17T10:02:55;101840.16;;;13.24;91.29
66703;BME280;60933;46.398;-63.798;2023-08-17T10:05:25;101842.53;;;13.35;90.46
66703;BME280;60933;46.398;-63.798;2023-08-17T10:07:57;101844.03;;;13.49;91.10
66703;BME280;60933;46.398;-63.798;2023-08-17T10:10:27;101842.03;;;13.63;91.84
66703;BME280;60933;46.398;-63.798;2023-08-17T10:13:08;101844.22;;;13.83;93.24
66703;BME280;60933;46.398;-63.798;2023-08-17T10:15:37;101843.88;;;14.00;94.03
66703;BME280;60933;46.398;-63.798;2023-08-17T10:18:29;101839.13;;;14.18;93.73
66703;BME280;60933;46.398;-63.798;2023-08-17T10:21:25;101850.06;;;14.34;94.08
66703;BME280;60933;46.398;-63.798;2023-08-17T10:23:54;101844.56;;;14.46;92.16
66703;BME280;60933;46.398;-63.798;2023-08-17T10:26:21;101845.84;;;14.64;92.38
66703;BME280;60933;46.398;-63.798;2023-08-17T10:28:48;101855.84;;;14.83;93.75
66703;BME280;60933;46.398;-63.798;2023-08-17T10:31:14;101852.16;;;14.92;91.63
66703;BME280;60933;46.398;-63.798;2023-08-17T10:33:41;101854.41;;;15.06;93.01
66703;BME280;60933;46.398;-63.798;2023-08-17T10:36:11;101854.13;;;15.16;92.83
66703;BME280;60933;46.398;-63.798;2023-08-17T10:38:38;101859.09;;;15.26;88.81
66703;BME280;60933;46.398;-63.798;2023-08-17T10:41:12;101854.25;;;15.45;93.56
66703;BME280;60933;46.398;-63.798;2023-08-17T10:43:57;101864.31;;;15.57;91.86
66703;BME280;60933;46.398;-63.798;2023-08-17T10:46:37;101860.47;;;15.71;92.12
66703;BME280;60933;46.398;-63.798;2023-08-17T10:49:07;101863.59;;;15.82;89.68
66703;BME280;60933;46.398;-63.798;2023-08-17T10:52:07;101863.19;;;15.97;93.13
66703;BME280;60933;46.398;-63.798;2023-08-17T10:54:40;101861.28;;;16.03;89.15
66703;BME280;60933;46.398;-63.798;2023-08-17T10:57:28;101869.25;;;16.26;93.09
66703;BME280;60933;46.398;-63.798;2023-08-17T11:00:15;101873.03;;;16.44;93.65
66703;BME280;60933;46.398;-63.798;2023-08-17T11:03:17;101873.63;;;16.54;89.90
66703;BME280;60933;46.398;-63.798;2023-08-17T11:05:48;101881.00;;;16.68;91.17
66703;BME280;60933;46.398;-63.798;2023-08-17T11:08:51;101876.53;;;16.72;91.29
66703;BME280;60933;46.398;-63.798;2023-08-17T11:11:20;101879.66;;;16.83;92.92
66703;BME280;60933;46.398;-63.798;2023-08-17T11:13:47;101876.97;;;16.85;90.16
66703;BME280;60933;46.398;-63.798;2023-08-17T11:16:16;101887.19;;;16.91;90.32
66703;BME280;60933;46.398;-63.798;2023-08-17T11:18:46;101882.59;;;17.01;93.35
66703;BME280;60933;46.398;-63.798;2023-08-17T11:21:13;101882.47;;;17.04;94.46
66703;BME280;60933;46.398;-63.798;2023-08-17T11:23:40;101889.38;;;17.05;91.77
66703;BME280;60933;46.398;-63.798;2023-08-17T11:26:07;101898.03;;;17.07;91.21
66703;BME280;60933;46.398;-63.798;2023-08-17T11:28:34;101901.38;;;17.11;93.50
66703;BME280;60933;46.398;-63.798;2023-08-17T11:31:05;101903.84;;;17.15;93.99
66703;BME280;60933;46.398;-63.798;2023-08-17T11:33:35;101906.31;;;17.18;94.68
66703;BME280;60933;46.398;-63.798;2023-08-17T11:36:03;101916.75;;;17.18;92.12
66703;BME280;60933;46.398;-63.798;2023-08-17T11:38:35;101912.28;;;17.22;92.28
66703;BME280;60933;46.398;-63.798;2023-08-17T11:41:02;101909.38;;;17.31;93.65
66703;BME280;60933;46.398;-63.798;2023-08-17T11:43:32;101916.19;;;17.35;90.07
66703;BME280;60933;46.398;-63.798;2023-08-17T11:46:00;101921.03;;;17.46;92.94
66703;BME280;60933;46.398;-63.798;2023-08-17T11:48:26;101918.44;;;17.46;90.93
66703;BME280;60933;46.398;-63.798;2023-08-17T11:50:53;101920.06;;;17.49;92.39
66703;BME280;60933;46.398;-63.798;2023-08-17T11:53:24;101919.19;;;17.50;93.45
66703;BME280;60933;46.398;-63.798;2023-08-17T11:55:50;101912.19;;;17.50;92.72
66703;BME280;60933;46.398;-63.798;2023-08-17T11:58:17;101926.66;;;17.59;94.69
66703;BME280;60933;46.398;-63.798;2023-08-17T12:00:44;101913.28;;;17.68;93.30
66703;BME280;60933;46.398;-63.798;2023-08-17T12:03:14;101919.31;;;17.70;90.82
66703;BME280;60933;46.398;-63.798;2023-08-17T12:05:41;101913.59;;;17.84;92.48
66703;BME280;60933;46.398;-63.798;2023-08-17T12:08:08;101911.59;;;17.91;87.38
66703;BME280;60933;46.398;-63.798;2023-08-17T12:10:34;101912.84;;;18.04;88.82
66703;BME280;60933;46.398;-63.798;2023-08-17T12:13:00;101911.66;;;18.13;87.51
66703;BME280;60933;46.398;-63.798;2023-08-17T12:15:33;101911.25;;;18.24;88.72
66703;BME280;60933;46.398;-63.798;2023-08-17T12:18:03;101920.13;;;18.42;91.54
66703;BME280;60933;46.398;-63.798;2023-08-17T12:20:32;101917.81;;;18.57;91.56
66703;BME280;60933;46.398;-63.798;2023-08-17T12:22:58;101910.41;;;18.68;90.77
66703;BME280;60933;46.398;-63.798;2023-08-17T12:25:25;101917.75;;;18.80;91.03
66703;BME280;60933;46.398;-63.798;2023-08-17T12:27:52;101917.25;;;18.93;91.99
66703;BME280;60933;46.398;-63.798;2023-08-17T12:30:29;101919.03;;;18.92;90.20
66703;BME280;60933;46.398;-63.798;2023-08-17T12:32:58;101910.09;;;18.98;90.30
66703;BME280;60933;46.398;-63.798;2023-08-17T12:35:25;101920.03;;;19.10;90.07